Time;durP1;ratioP1;P1;durP2;ratioP2;P2;SDS_P1;SDS_P2;PMS_P1;PMS_P2;Temp;Humidity;BMP_temperature;BMP_pressure;BME280_temperature;BME280_humidity;BME280_pressure;Samples;Min_cycle;Max_cycle;Signal;HPM_P1;HPM_P2
2022/01/30 00:05:39;;;;;;;4.50;1.05;;;;;;;4.89;89.97;97966.26;4146355;84;21093;-92
2022/01/30 00:11:45;;;;;;;3.02;1.47;;;;;;;5.11;89.46;97936.95;4131747;83;21079;-93
2022/01/30 00:18:06;;;;;;;2.33;1.17;;;;;;;5.28;87.97;97959.52;4123616;84;21080;-91
2022/01/30 00:24:06;;;;;;;1.67;0.70;;;;;;;5.43;88.63;97983.00;4133062;84;21381;-91
2022/01/30 00:30:03;;;;;;;2.35;0.85;;;;;;;5.48;88.70;97951.48;4115631;84;21099;-91
2022/01/30 00:36:04;;;;;;;3.52;1.15;;;;;;;5.49;89.01;97962.53;4145423;83;21130;-90
2022/01/30 00:42:10;;;;;;;4.62;1.85;;;;;;;5.51;88.25;97943.96;4122533;84;21146;-91
2022/01/30 00:48:12;;;;;;;1.50;0.90;;;;;;;5.51;88.91;97960.25;4120286;84;21697;-91
2022/01/30 00:54:14;;;;;;;3.55;0.70;;;;;;;5.54;88.80;97941.88;4141360;84;21550;-91
2022/01/30 01:00:19;;;;;;;2.77;1.15;;;;;;;5.63;87.53;97940.45;4140906;83;21054;-91
2022/01/30 01:06:20;;;;;;;2.02;1.02;;;;;;;5.76;87.56;97926.84;4126430;84;21086;-91
2022/01/30 01:12:33;;;;;;;2.92;1.12;;;;;;;5.81;86.51;97914.89;4150776;84;21093;-91
2022/01/30 01:24:48;;;;;;;3.50;1.52;;;;;;;5.95;85.20;97882.50;4135495;84;21023;-91
2022/01/30 01:30:50;;;;;;;2.40;1.17;;;;;;;5.93;84.66;97877.44;4097524;84;21065;-93
2022/01/30 01:36:51;;;;;;;4.05;1.17;;;;;;;5.98;84.71;97846.44;4043301;86;21150;-92
2022/01/30 01:42:54;;;;;;;2.10;0.98;;;;;;;6.01;84.75;97879.66;4022025;86;21142;-91
2022/01/30 01:48:56;;;;;;;5.22;1.47;;;;;;;5.87;87.85;97878.89;4029040;85;21170;-91
2022/01/30 01:55:00;;;;;;;1.60;1.00;;;;;;;5.54;88.09;97910.09;4040234;86;21091;-91
2022/01/30 02:01:03;;;;;;;2.90;1.15;;;;;;;5.45;88.38;97893.27;4043776;86;21076;-93
2022/01/30 02:26:27;;;;;;;7.58;2.60;;;;;;;5.08;86.53;97977.80;4042713;86;21102;-91
2022/01/30 02:32:29;;;;;;;7.08;2.17;;;;;;;4.82;87.46;97981.83;4042221;86;21145;-90
2022/01/30 02:38:32;;;;;;;4.58;2.22;;;;;;;4.65;87.64;97966.04;3960006;87;21387;-92
2022/01/30 02:44:41;;;;;;;7.62;2.75;;;;;;;4.59;87.44;97968.81;4026952;86;22510;-91
2022/01/30 02:51:09;;;;;;;8.20;2.00;;;;;;;4.53;87.10;97947.22;3965773;87;21126;-92
2022/01/30 02:57:00;;;;;;;7.60;1.87;;;;;;;4.52;86.21;97954.58;4076630;86;21047;-93
2022/01/30 03:03:02;;;;;;;5.20;1.45;;;;;;;4.51;85.97;97959.77;4072667;86;21170;-91
2022/01/30 03:09:07;;;;;;;5.05;1.52;;;;;;;4.48;84.79;97962.41;4123328;84;21149;-95
2022/01/30 03:15:11;;;;;;;4.00;1.42;;;;;;;4.62;83.47;97950.47;4126848;83;21093;-91
2022/01/30 03:21:13;;;;;;;12.18;2.05;;;;;;;4.64;83.57;97959.03;4119311;84;21074;-92
2022/01/30 03:27:15;;;;;;;8.60;1.98;;;;;;;4.59;83.30;97953.91;4097292;84;21071;-92
2022/01/30 03:33:18;;;;;;;6.80;1.70;;;;;;;4.52;83.50;97961.92;4121918;84;21549;-91
2022/01/30 03:39:20;;;;;;;8.25;1.72;;;;;;;4.40;83.39;97960.14;4132819;84;21096;-91
2022/01/30 03:45:25;;;;;;;12.20;2.10;;;;;;;4.40;81.66;97951.26;4114040;84;21206;-92
2022/01/30 03:51:27;;;;;;;7.62;1.62;;;;;;;4.38;80.86;97944.05;4133440;83;21113;-91
2022/01/30 03:57:29;;;;;;;11.40;1.70;;;;;;;4.24;79.80;97931.59;4128235;83;21729;-91
2022/01/30 04:03:31;;;;;;;6.83;1.25;;;;;;;4.18;78.33;97951.99;4064363;85;21086;-92
2022/01/30 04:09:33;;;;;;;5.62;1.40;;;;;;;4.22;75.77;97942.00;4057971;85;21124;-93
2022/01/30 04:15:38;;;;;;;6.95;1.42;;;;;;;4.29;75.80;97937.48;4033775;85;22095;-92
2022/01/30 04:21:41;;;;;;;7.40;1.77;;;;;;;4.28;76.70;97923.74;4071792;84;21131;-92
2022/01/30 04:28:00;;;;;;;7.65;1.87;;;;;;;4.20;77.36;97904.44;4061610;86;21741;-92
2022/01/30 04:34:10;;;;;;;9.33;1.50;;;;;;;4.07;77.54;97899.55;4110976;84;21717;-92
2022/01/30 04:40:46;;;;;;;5.72;2.10;;;;;;;3.97;77.66;97890.08;4140810;83;21098;-92
2022/01/30 04:53:22;;;;;;;11.08;1.67;;;;;;;3.90;77.73;97900.75;4133589;84;22598;-93
2022/01/30 04:59:52;;;;;;;7.85;1.75;;;;;;;3.83;77.62;97939.88;4040766;86;21496;-92
2022/01/30 05:06:01;;;;;;;8.73;2.02;;;;;;;3.48;79.39;97980.30;4083289;86;21191;-91
2022/01/30 05:12:13;;;;;;;11.12;3.45;;;;;;;2.60;80.90;97908.68;4058661;84;45580;-91
2022/01/30 05:18:33;;;;;;;4.97;1.82;;;;;;;2.37;83.08;97919.08;4165765;83;21067;-92
2022/01/30 05:24:55;;;;;;;11.55;3.20;;;;;;;2.51;83.35;97913.48;4196893;83;21067;-93
2022/01/30 05:31:03;;;;;;;20.37;4.55;;;;;;;2.69;83.35;97897.70;4220960;82;21598;-90
2022/01/30 05:37:14;;;;;;;8.48;3.50;;;;;;;2.83;83.38;97893.99;4189418;83;21138;-91
2022/01/30 05:43:28;;;;;;;14.15;4.15;;;;;;;2.89;83.42;97883.91;4140912;83;21568;-92
2022/01/30 05:49:41;;;;;;;9.68;2.22;;;;;;;2.91;83.30;97868.11;4129247;83;22004;-91
2022/01/30 05:55:51;;;;;;;6.75;1.90;;;;;;;2.95;83.03;97841.16;4154553;83;21130;-90
2022/01/30 06:01:52;;;;;;;7.10;2.33;;;;;;;3.14;81.17;97811.46;4202538;83;21070;-92
2022/01/30 06:07:57;;;;;;;12.03;1.52;;;;;;;3.29;81.05;97809.84;4175470;83;21122;-92
2022/01/30 06:13:59;;;;;;;6.90;1.65;;;;;;;3.38;80.11;97777.38;4186349;83;21024;-93
2022/01/30 06:20:01;;;;;;;9.13;2.80;;;;;;;3.49;79.06;97777.58;4189795;83;22311;-90
2022/01/30 06:26:10;;;;;;;14.15;1.75;;;;;;;3.62;76.99;97776.30;4188758;83;21079;-94
2022/01/30 06:32:28;;;;;;;6.37;1.47;;;;;;;3.69;77.14;97792.65;4179666;84;21912;-91
2022/01/30 06:38:49;;;;;;;9.90;1.85;;;;;;;3.76;76.38;97815.21;4172929;84;21058;-92
2022/01/30 06:45:11;;;;;;;5.80;1.50;;;;;;;3.77;76.79;97808.67;4158024;83;21594;-93
2022/01/30 06:51:31;;;;;;;7.40;1.60;;;;;;;3.74;76.45;97802.62;4184952;83;22378;-92
2022/01/30 06:57:50;;;;;;;6.67;1.57;;;;;;;3.76;75.71;97807.69;4185044;83;21098;-93
2022/01/30 07:03:56;;;;;;;10.75;2.20;;;;;;;3.78;75.68;97804.02;4118706;83;21614;-92
2022/01/30 07:10:07;;;;;;;7.42;1.77;;;;;;;3.82;75.61;97801.59;4203887;83;21035;-91
2022/01/30 07:16:10;;;;;;;4.97;1.65;;;;;;;3.84;74.91;97807.44;4107464;85;21631;-92
2022/01/30 07:22:11;;;;;;;9.10;2.30;;;;;;;3.87;75.28;97819.49;4031462;86;21038;-92
2022/01/30 07:28:12;;;;;;;9.00;1.62;;;;;;;3.86;74.70;97793.54;4080877;85;21138;-93
2022/01/30 07:34:13;;;;;;;7.97;1.62;;;;;;;3.82;74.87;97792.12;4227177;82;21149;-90
2022/01/30 07:40:15;;;;;;;10.50;2.00;;;;;;;3.88;74.61;97799.39;4232284;82;21121;-92
2022/01/30 07:46:16;;;;;;;6.12;1.92;;;;;;;3.83;74.47;97788.28;4201164;83;21137;-92
2022/01/30 07:52:22;;;;;;;6.40;2.33;;;;;;;3.83;74.44;97784.78;4186522;83;21214;-92
2022/01/30 07:58:25;;;;;;;13.18;3.15;;;;;;;3.85;73.55;97790.07;4208379;83;21621;-91
2022/01/30 08:04:28;;;;;;;8.90;2.05;;;;;;;3.83;74.07;97765.84;4178684;83;21091;-92
2022/01/30 08:10:29;;;;;;;6.80;1.67;;;;;;;3.83;73.82;97763.13;4213331;82;51254;-93
2022/01/30 08:16:31;;;;;;;9.90;2.00;;;;;;;3.88;74.06;97781.23;4224096;82;21078;-93
2022/01/30 08:22:33;;;;;;;6.72;2.17;;;;;;;3.99;74.12;97769.22;4187301;83;21062;-91
2022/01/30 08:28:34;;;;;;;7.17;1.62;;;;;;;3.94;74.64;97763.54;4160909;83;22055;-91
2022/01/30 08:34:35;;;;;;;6.87;2.12;;;;;;;3.89;75.11;97766.54;4205766;82;21104;-91
2022/01/30 08:40:37;;;;;;;8.70;2.58;;;;;;;3.85;75.62;97745.41;4182249;82;21005;-91
2022/01/30 08:46:38;;;;;;;12.53;2.70;;;;;;;3.83;75.98;97782.08;4206448;82;21107;-92
2022/01/30 08:52:41;;;;;;;12.40;2.80;;;;;;;3.68;77.59;97772.91;4188151;82;21039;-93
2022/01/30 08:58:43;;;;;;;7.70;2.83;;;;;;;3.40;79.07;97792.67;4109195;83;21063;-91
2022/01/30 09:04:45;;;;;;;11.48;2.00;;;;;;;2.99;79.43;97823.88;4337667;80;21507;-91
2022/01/30 09:10:46;;;;;;;6.33;1.90;;;;;;;2.96;81.11;97813.78;4358797;80;21080;-92
2022/01/30 09:16:47;;;;;;;11.22;2.92;;;;;;;2.98;81.91;97818.27;4357092;80;21542;-90
2022/01/30 09:22:51;;;;;;;9.45;2.58;;;;;;;3.03;82.10;97833.43;4352675;80;21098;-93
2022/01/30 09:28:52;;;;;;;12.30;3.65;;;;;;;3.08;83.21;97832.60;4346330;80;21066;-94
2022/01/30 09:34:53;;;;;;;11.95;4.28;;;;;;;3.06;83.36;97838.92;4380854;80;21090;-91
2022/01/30 09:41:00;;;;;;;10.95;3.83;;;;;;;2.95;83.81;97830.35;4334805;80;22094;-91
2022/01/30 09:47:02;;;;;;;19.00;6.70;;;;;;;2.94;85.16;97820.69;4332235;80;21082;-93
2022/01/30 09:53:04;;;;;;;13.80;4.05;;;;;;;2.89;84.44;97816.34;4349875;79;21097;-91
2022/01/30 09:59:06;;;;;;;14.58;4.03;;;;;;;2.89;84.29;97804.18;4347924;79;21069;-93
2022/01/30 10:05:08;;;;;;;9.85;3.27;;;;;;;2.94;84.45;97798.47;4320935;79;21105;-92
2022/01/30 10:11:34;;;;;;;11.18;3.00;;;;;;;3.08;84.28;97777.17;4333733;80;21086;-91
2022/01/30 10:17:51;;;;;;;10.30;3.90;;;;;;;3.25;84.25;97775.95;4357529;79;21105;-92
2022/01/30 10:23:53;;;;;;;17.00;5.60;;;;;;;3.41;83.59;97768.55;4339440;80;21595;-91
2022/01/30 10:30:09;;;;;;;13.30;5.17;;;;;;;3.61;83.48;97773.36;4344181;79;21106;-93
2022/01/30 10:36:15;;;;;;;12.53;5.00;;;;;;;4.07;82.58;97756.78;4356884;80;21079;-91
2022/01/30 10:42:50;;;;;;;12.63;4.95;;;;;;;4.08;81.94;97757.57;4328478;80;21074;-92
2022/01/30 10:49:01;;;;;;;13.00;5.05;;;;;;;4.01;81.87;97773.12;4336800;79;21031;-92
2022/01/30 10:55:06;;;;;;;17.87;4.58;;;;;;;3.92;81.76;97760.97;4335249;80;21580;-93
2022/01/30 11:01:07;;;;;;;14.18;4.08;;;;;;;3.86;80.92;97778.09;4331027;79;21027;-90
2022/01/30 11:07:11;;;;;;;14.10;4.20;;;;;;;3.79;79.69;97788.02;4354830;79;21183;-92
2022/01/30 11:13:24;;;;;;;15.00;3.95;;;;;;;3.66;80.67;97794.72;4282287;80;87768;-90
2022/01/30 11:19:18;;;;;;;16.60;3.60;;;;;;;3.52;80.95;97839.09;4222130;82;21046;-92
2022/01/30 11:25:21;;;;;;;9.63;3.02;;;;;;;3.33;81.76;97857.46;4220292;82;21099;-91
2022/01/30 11:31:25;;;;;;;8.85;2.87;;;;;;;2.99;82.86;97862.32;4233842;82;21079;-90
2022/01/30 11:37:33;;;;;;;14.23;3.40;;;;;;;2.58;83.90;97887.20;4233860;82;21110;-91
2022/01/30 11:43:34;;;;;;;14.20;4.00;;;;;;;2.25;85.96;97868.64;4221757;81;21052;-92
2022/01/30 11:49:44;;;;;;;19.40;8.70;;;;;;;2.22;86.69;97862.59;4241938;81;21058;-91
2022/01/30 11:56:00;;;;;;;22.95;7.80;;;;;;;2.27;87.79;97844.76;4214891;80;21098;-90
2022/01/30 12:02:33;;;;;;;17.10;7.87;;;;;;;2.27;88.26;97858.26;4230649;82;21130;-90
2022/01/30 12:08:48;;;;;;;15.68;5.30;;;;;;;2.37;89.97;97838.84;4252881;81;22126;-93
2022/01/30 12:14:49;;;;;;;18.12;6.50;;;;;;;2.39;89.30;97824.44;4229859;81;21138;-92
2022/01/30 12:21:08;;;;;;;15.80;5.42;;;;;;;2.40;90.08;97826.55;4218934;82;21653;-90
2022/01/30 12:27:10;;;;;;;13.60;5.25;;;;;;;2.48;92.27;97789.13;4200814;80;21039;-92
2022/01/30 12:33:38;;;;;;;12.68;4.58;;;;;;;2.44;91.32;97797.17;4217572;80;21104;-91
2022/01/30 12:39:39;;;;;;;21.20;5.90;;;;;;;2.44;91.29;97802.57;4214404;81;21060;-92
2022/01/30 12:45:40;;;;;;;18.17;5.20;;;;;;;2.47;92.18;97811.32;4220566;81;21064;-91
2022/01/30 12:51:48;;;;;;;19.35;6.33;;;;;;;2.47;91.80;97810.53;4241276;82;21044;-92
2022/01/30 12:57:54;;;;;;;18.62;6.28;;;;;;;2.55;91.84;97816.31;4256979;81;21654;-91
2022/01/30 13:04:11;;;;;;;29.87;9.25;;;;;;;2.73;91.31;97826.95;4214793;81;21056;-92
2022/01/30 13:10:15;;;;;;;18.05;5.00;;;;;;;2.85;90.99;97833.62;4158480;83;21103;-91
2022/01/30 13:16:16;;;;;;;16.45;4.12;;;;;;;2.97;90.21;97847.80;4229238;81;21142;-93
2022/01/30 13:22:34;;;;;;;17.42;3.80;;;;;;;3.06;89.53;97864.61;4228391;81;22191;-93
2022/01/30 13:28:36;;;;;;;;;;;;;;;3.10;89.47;97857.94;4195249;82;21095;-92
2022/01/30 13:34:40;;;;;;;19.85;4.97;;;;;;;3.16;88.65;97872.16;4225281;81;20258;-92
2022/01/30 13:40:57;;;;;;;19.32;4.80;;;;;;;3.19;88.62;97883.61;4228015;82;21071;-92
2022/01/30 13:47:03;;;;;;;17.48;5.70;;;;;;;3.14;88.98;97902.05;4222570;82;21095;-91
2022/01/30 13:53:13;;;;;;;17.87;5.17;;;;;;;3.02;89.12;97923.20;4206545;82;21146;-92
2022/01/30 13:59:30;;;;;;;18.07;4.47;;;;;;;2.94;89.83;97946.39;4185565;81;21125;-91
2022/01/30 14:05:43;;;;;;;19.73;3.90;;;;;;;2.87;89.78;97942.94;4193499;82;21151;-91
2022/01/30 14:12:03;;;;;;;16.23;3.83;;;;;;;2.92;89.97;97960.81;4229335;81;21153;-93
2022/01/30 14:18:15;;;;;;;34.05;13.22;;;;;;;2.90;89.92;97986.84;4208079;82;21606;-92
2022/01/30 14:24:20;;;;;;;35.85;11.30;;;;;;;2.87;90.17;97995.65;4249314;82;21090;-92
2022/01/30 14:30:40;;;;;;;37.28;15.60;;;;;;;2.79;90.58;97991.75;4245439;81;21094;-92
2022/01/30 14:36:43;;;;;;;32.55;12.50;;;;;;;2.71;91.19;97998.90;4236993;80;21174;-91
2022/01/30 14:42:47;;;;;;;35.88;13.35;;;;;;;2.66;91.54;98022.70;4207777;81;55094;-91
2022/01/30 14:48:48;;;;;;;33.15;13.55;;;;;;;2.55;91.87;98039.96;4235501;81;21073;-92
2022/01/30 14:54:49;;;;;;;33.30;10.50;;;;;;;2.43;91.94;98062.19;4244058;81;21673;-93
2022/01/30 15:00:55;;;;;;;25.70;9.45;;;;;;;2.34;92.65;98057.51;4206082;81;21075;-92
2022/01/30 15:06:56;;;;;;;28.98;10.65;;;;;;;2.23;92.60;98084.22;4235732;81;21113;-93
2022/01/30 15:12:57;;;;;;;31.10;11.38;;;;;;;2.14;92.76;98085.48;4244508;81;21070;-92
2022/01/30 15:18:58;;;;;;;29.82;9.08;;;;;;;2.17;93.37;98091.55;4248215;81;21931;-92
2022/01/30 15:25:00;;;;;;;25.15;6.15;;;;;;;2.15;93.58;98099.98;4221367;81;21197;-91
2022/01/30 15:31:02;;;;;;;28.90;7.95;;;;;;;2.14;93.40;98109.23;4246761;82;21073;-92
2022/01/30 15:37:05;;;;;;;24.55;8.10;;;;;;;2.20;93.62;98133.51;4254473;81;21589;-92
2022/01/30 15:43:08;;;;;;;28.40;6.83;;;;;;;2.22;93.80;98143.97;4233228;81;21121;-92
2022/01/30 15:49:14;;;;;;;34.85;9.23;;;;;;;2.22;93.69;98160.17;4224968;81;21091;-92
2022/01/30 15:55:15;;;;;;;23.95;6.60;;;;;;;2.21;93.98;98182.33;4250519;81;22143;-92
2022/01/30 16:01:17;;;;;;;23.73;5.37;;;;;;;2.17;94.42;98196.30;4232109;81;21075;-93
2022/01/30 16:07:18;;;;;;;26.15;6.08;;;;;;;2.11;94.28;98182.80;4244838;81;21555;-91
2022/01/30 16:19:39;;;;;;;21.27;5.90;;;;;;;2.06;95.09;98214.62;4246209;81;21076;-93
2022/01/30 16:25:45;;;;;;;24.20;6.92;;;;;;;2.07;94.71;98204.84;4219691;81;21988;-93
2022/01/30 16:31:46;;;;;;;24.15;5.72;;;;;;;2.12;94.80;98219.47;4240095;81;21043;-93
2022/01/30 16:37:48;;;;;;;32.13;7.17;;;;;;;2.13;94.72;98218.91;4138499;83;21104;-91
2022/01/30 16:43:53;;;;;;;34.73;7.78;;;;;;;2.18;94.48;98227.56;4244208;81;21050;-93
2022/01/30 16:49:55;;;;;;;23.83;6.60;;;;;;;2.27;94.35;98218.77;4241544;81;21097;-90
2022/01/30 16:55:58;;;;;;;23.42;5.78;;;;;;;2.37;94.06;98220.23;4254025;81;21661;-93
2022/01/30 17:01:59;;;;;;;27.55;7.40;;;;;;;2.48;93.45;98227.53;4252440;81;21114;-92
2022/01/30 17:08:00;;;;;;;37.93;11.35;;;;;;;2.56;93.23;98221.77;4251955;81;21069;-92
2022/01/30 17:14:01;;;;;;;34.67;10.78;;;;;;;2.56;93.09;98219.88;4210139;82;21064;-92
2022/01/30 17:20:04;;;;;;;31.37;9.68;;;;;;;2.67;92.32;98222.88;4216931;82;21580;-93
2022/01/30 17:26:06;;;;;;;26.57;7.03;;;;;;;2.75;92.20;98226.02;4234788;82;21157;-91
2022/01/30 17:32:07;;;;;;;30.37;9.83;;;;;;;2.81;91.76;98231.40;4233670;82;21698;-91
2022/01/30 17:38:10;;;;;;;23.02;5.67;;;;;;;2.83;91.36;98239.41;4211490;82;21054;-92
2022/01/30 17:44:12;;;;;;;25.92;5.40;;;;;;;2.87;90.69;98232.17;4067231;85;21646;-91
2022/01/30 17:50:17;;;;;;;26.60;7.20;;;;;;;2.99;90.10;98252.98;4070194;85;21101;-94
2022/01/30 17:56:20;;;;;;;35.87;11.93;;;;;;;3.02;89.30;98250.95;4083749;85;21075;-93
2022/01/30 18:02:32;;;;;;;27.00;9.68;;;;;;;3.07;88.16;98247.98;4197264;82;21141;31
2022/01/30 18:08:33;;;;;;;30.95;10.48;;;;;;;3.13;86.37;98259.56;4141626;83;21584;-94
2022/01/30 18:14:35;;;;;;;24.32;7.05;;;;;;;3.14;87.44;98255.75;4078052;84;21110;-92
2022/01/30 18:20:36;;;;;;;33.92;7.25;;;;;;;3.11;86.43;98255.64;4052458;85;21126;-92
2022/01/30 18:26:44;;;;;;;32.17;8.25;;;;;;;3.07;86.77;98254.18;4086025;84;21117;-93
2022/01/30 18:32:41;;;;;;;23.22;4.85;;;;;;;3.02;87.23;98259.06;4039338;86;21706;-93
2022/01/30 18:39:02;;;;;;;41.65;6.97;;;;;;;3.07;86.07;98273.66;4066760;84;21081;-91
2022/01/30 18:44:58;;;;;;;20.20;5.58;;;;;;;3.09;85.17;98303.86;4089616;84;21126;-94
2022/01/30 18:50:59;;;;;;;27.67;6.67;;;;;;;3.10;85.32;98308.93;4103776;84;21150;-93
2022/01/30 18:57:01;;;;;;;26.57;5.12;;;;;;;3.16;85.16;98298.09;4043828;85;21190;-93
2022/01/30 19:03:03;;;;;;;32.28;6.90;;;;;;;3.16;84.93;98310.84;3905622;86;10000133;-93
2022/01/30 19:09:07;;;;;;;25.62;5.67;;;;;;;3.13;84.85;98315.59;4069344;84;21617;-90
2022/01/30 19:15:09;;;;;;;36.42;7.35;;;;;;;3.05;84.38;98324.03;4080038;85;21102;-92
2022/01/30 19:21:11;;;;;;;25.48;5.42;;;;;;;3.10;84.13;98339.27;4040637;86;21165;-92
2022/01/30 19:27:13;;;;;;;29.85;7.28;;;;;;;3.12;82.93;98349.95;4082314;85;21066;-92
2022/01/30 19:33:14;;;;;;;25.37;6.47;;;;;;;3.08;83.55;98342.30;4044556;85;21174;-91
2022/01/30 19:39:15;;;;;;;21.50;5.37;;;;;;;3.12;82.47;98343.74;4042662;85;21084;-91
2022/01/30 19:45:16;;;;;;;27.40;6.30;;;;;;;3.12;82.17;98355.91;4046443;85;21066;-92
2022/01/30 19:51:18;;;;;;;28.38;5.53;;;;;;;3.14;82.00;98352.31;4088494;84;21807;-92
2022/01/30 19:57:19;;;;;;;32.45;6.03;;;;;;;3.05;81.15;98353.02;4071029;84;21058;-93
2022/01/30 20:03:22;;;;;;;24.63;5.15;;;;;;;2.95;81.86;98351.56;4082328;84;21632;-93
2022/01/30 20:09:23;;;;;;;27.40;6.47;;;;;;;2.89;81.18;98358.33;4043328;85;21654;-93
2022/01/30 20:15:24;;;;;;;35.50;6.92;;;;;;;2.85;81.29;98362.83;4049674;85;21216;-92
2022/01/30 20:21:31;;;;;;;19.90;4.85;;;;;;;2.83;81.57;98373.77;4022684;86;21095;-92
2022/01/30 20:27:33;;;;;;;28.87;5.83;;;;;;;2.83;81.25;98373.20;4040608;86;22700;-93
2022/01/30 20:33:34;;;;;;;31.62;7.12;;;;;;;2.85;81.39;98406.66;4028150;86;21723;-94
2022/01/30 20:39:36;;;;;;;32.65;5.85;;;;;;;2.88;81.26;98416.80;4063986;85;21790;-91
2022/01/30 20:45:37;;;;;;;29.12;4.80;;;;;;;2.82;80.88;98436.48;4070244;84;21217;-92
2022/01/30 20:51:39;;;;;;;31.77;7.28;;;;;;;2.71;81.46;98405.63;4103005;84;21089;-93
2022/01/30 20:57:40;;;;;;;29.95;6.75;;;;;;;2.62;81.71;98394.14;4134114;83;21031;-92
2022/01/30 21:03:42;;;;;;;35.30;6.05;;;;;;;2.57;81.55;98409.80;4094035;84;21171;-91
2022/01/30 21:09:43;;;;;;;26.90;4.40;;;;;;;2.57;80.93;98428.13;4095506;84;21105;-91
2022/01/30 21:15:44;;;;;;;29.12;5.35;;;;;;;2.62;80.85;98425.22;4013964;86;21618;-93
2022/01/30 21:21:46;;;;;;;24.72;6.35;;;;;;;2.69;80.27;98443.58;4050928;85;21209;-93
2022/01/30 21:27:47;;;;;;;22.48;7.30;;;;;;;2.68;80.18;98442.78;4091850;85;21106;-92
2022/01/30 21:33:49;;;;;;;34.80;10.95;;;;;;;2.63;80.45;98439.52;4018252;86;21146;-92
2022/01/30 21:39:52;;;;;;;33.58;10.00;;;;;;;2.60;80.52;98448.30;4082309;86;21066;-91
2022/01/30 21:45:53;;;;;;;37.30;9.73;;;;;;;2.54;80.82;98458.53;4021402;86;21094;-92
2022/01/30 21:51:54;;;;;;;34.58;7.60;;;;;;;2.48;80.90;98476.08;4134849;83;21106;-92
2022/01/30 21:57:56;;;;;;;32.63;6.05;;;;;;;2.47;81.02;98448.84;4131397;84;21077;-91
2022/01/30 22:03:57;;;;;;;35.85;5.50;;;;;;;2.48;80.88;98444.22;4161120;83;21808;-92
2022/01/30 22:09:58;;;;;;;28.60;6.05;;;;;;;2.45;80.61;98444.33;4154142;83;21527;-91
2022/01/30 22:15:59;;;;;;;26.40;4.85;;;;;;;2.52;80.10;98454.02;4154940;83;21604;-91
2022/01/30 22:22:01;;;;;;;29.10;4.97;;;;;;;2.52;80.17;98453.24;4149288;83;21765;-91
2022/01/30 22:28:03;;;;;;;22.37;5.25;;;;;;;2.51;80.01;98467.30;4173304;83;21086;-93
2022/01/30 22:34:05;;;;;;;32.20;5.10;;;;;;;2.56;79.81;98460.89;4149379;83;21134;-92
2022/01/30 22:40:09;;;;;;;24.10;4.97;;;;;;;2.58;79.11;98465.41;4147945;83;21083;-92
2022/01/30 22:46:11;;;;;;;36.58;5.92;;;;;;;2.58;79.12;98471.61;4150958;83;21078;-92
2022/01/30 22:52:12;;;;;;;24.02;4.58;;;;;;;2.60;78.84;98490.19;4166272;83;21549;-92
2022/01/30 22:58:15;;;;;;;38.08;5.97;;;;;;;2.57;78.73;98505.14;4153749;83;21609;-92
2022/01/30 23:04:16;;;;;;;36.85;11.85;;;;;;;2.53;78.82;98509.64;4136854;84;21112;-93
2022/01/30 23:10:17;;;;;;;28.85;8.98;;;;;;;2.48;79.11;98507.70;4158216;83;21074;-91
2022/01/30 23:16:18;;;;;;;39.42;13.05;;;;;;;2.37;79.53;98520.84;4149135;83;21175;-92
2022/01/30 23:22:22;;;;;;;43.42;10.98;;;;;;;2.28;80.20;98534.20;4149596;83;21605;-91
2022/01/30 23:28:23;;;;;;;36.20;11.33;;;;;;;2.14;80.38;98527.73;4141353;83;21073;-92
2022/01/30 23:34:24;;;;;;;29.42;7.50;;;;;;;2.13;80.27;98545.63;4164780;83;21150;-92
2022/01/30 23:40:26;;;;;;;27.07;5.58;;;;;;;2.12;80.33;98555.62;4164528;83;21137;-91
2022/01/30 23:46:28;;;;;;;39.23;9.25;;;;;;;2.11;80.38;98564.05;4148024;83;21065;-91
2022/01/30 23:52:29;;;;;;;48.70;17.23;;;;;;;1.97;80.64;98573.77;4158613;83;21101;-92
2022/01/30 23:58:30;;;;;;;44.25;14.78;;;;;;;1.87;81.09;98562.55;4158156;83;21067;-93
